sensor_id;sensor_type;location;lat;lon;timestamp;P1;durP1;ratioP1;P2;durP2;ratioP2
39982;SDS011;25670;44.782;10.356;2024-03-06T00:02:12;1.48;;;1.38;;
39982;SDS011;25670;44.782;10.356;2024-03-06T00:04:38;1.25;;;1.25;;
39982;SDS011;25670;44.782;10.356;2024-03-06T00:07:04;4.75;;;1.05;;
39982;SDS011;25670;44.782;10.356;2024-03-06T00:09:31;1.30;;;1.20;;
39982;SDS011;25670;44.782;10.356;2024-03-06T00:11:58;0.73;;;0.73;;
39982;SDS011;25670;44.782;10.356;2024-03-06T00:14:24;1.02;;;0.93;;
39982;SDS011;25670;44.782;10.356;2024-03-06T00:16:50;1.13;;;0.90;;
39982;SDS011;25670;44.782;10.356;2024-03-06T00:19:17;1.15;;;1.05;;
39982;SDS011;25670;44.782;10.356;2024-03-06T00:21:44;0.90;;;0.82;;
39982;SDS011;25670;44.782;10.356;2024-03-06T00:24:14;1.02;;;1.02;;
39982;SDS011;25670;44.782;10.356;2024-03-06T00:26:41;1.30;;;1.20;;
39982;SDS011;25670;44.782;10.356;2024-03-06T00:29:08;0.90;;;0.90;;
39982;SDS011;25670;44.782;10.356;2024-03-06T00:31:35;1.60;;;0.90;;
39982;SDS011;25670;44.782;10.356;2024-03-06T00:34:01;1.70;;;1.60;;
39982;SDS011;25670;44.782;10.356;2024-03-06T00:36:28;1.20;;;1.10;;
39982;SDS011;25670;44.782;10.356;2024-03-06T00:38:54;1.35;;;1.25;;
39982;SDS011;25670;44.782;10.356;2024-03-06T00:41:20;0.98;;;0.95;;
39982;SDS011;25670;44.782;10.356;2024-03-06T00:43:47;0.93;;;0.90;;
39982;SDS011;25670;44.782;10.356;2024-03-06T00:46:13;0.63;;;0.60;;
39982;SDS011;25670;44.782;10.356;2024-03-06T00:48:39;0.82;;;0.52;;
39982;SDS011;25670;44.782;10.356;2024-03-06T00:51:05;0.52;;;0.45;;
39982;SDS011;25670;44.782;10.356;2024-03-06T00:53:34;0.93;;;0.70;;
39982;SDS011;25670;44.782;10.356;2024-03-06T00:56:00;0.77;;;0.70;;
39982;SDS011;25670;44.782;10.356;2024-03-06T00:58:27;0.88;;;0.60;;
39982;SDS011;25670;44.782;10.356;2024-03-06T01:00:54;0.77;;;0.77;;
39982;SDS011;25670;44.782;10.356;2024-03-06T01:03:20;0.77;;;0.77;;
39982;SDS011;25670;44.782;10.356;2024-03-06T01:05:46;2.65;;;0.70;;
39982;SDS011;25670;44.782;10.356;2024-03-06T01:08:12;1.35;;;0.70;;
39982;SDS011;25670;44.782;10.356;2024-03-06T01:10:39;3.13;;;2.55;;
39982;SDS011;25670;44.782;10.356;2024-03-06T01:13:05;1.38;;;1.27;;
39982;SDS011;25670;44.782;10.356;2024-03-06T01:15:31;0.98;;;0.88;;
39982;SDS011;25670;44.782;10.356;2024-03-06T01:17:58;1.33;;;1.23;;
39982;SDS011;25670;44.782;10.356;2024-03-06T01:20:24;0.60;;;0.60;;
39982;SDS011;25670;44.782;10.356;2024-03-06T01:22:50;0.75;;;0.73;;
39982;SDS011;25670;44.782;10.356;2024-03-06T01:25:17;2.58;;;0.65;;
39982;SDS011;25670;44.782;10.356;2024-03-06T01:27:43;4.07;;;0.68;;
39982;SDS011;25670;44.782;10.356;2024-03-06T01:30:09;3.63;;;1.23;;
39982;SDS011;25670;44.782;10.356;2024-03-06T01:32:36;1.00;;;0.90;;
39982;SDS011;25670;44.782;10.356;2024-03-06T01:35:02;0.73;;;0.73;;
39982;SDS011;25670;44.782;10.356;2024-03-06T01:37:30;0.80;;;0.80;;
39982;SDS011;25670;44.782;10.356;2024-03-06T01:39:57;0.85;;;0.85;;
39982;SDS011;25670;44.782;10.356;2024-03-06T01:42:23;0.68;;;0.68;;
39982;SDS011;25670;44.782;10.356;2024-03-06T01:44:50;3.63;;;0.90;;
39982;SDS011;25670;44.782;10.356;2024-03-06T01:47:16;0.80;;;0.80;;
39982;SDS011;25670;44.782;10.356;2024-03-06T01:49:42;2.25;;;0.80;;
39982;SDS011;25670;44.782;10.356;2024-03-06T01:52:09;1.13;;;0.98;;
39982;SDS011;25670;44.782;10.356;2024-03-06T01:54:38;2.53;;;1.00;;
39982;SDS011;25670;44.782;10.356;2024-03-06T01:57:05;1.70;;;1.10;;
39982;SDS011;25670;44.782;10.356;2024-03-06T01:59:33;1.33;;;1.23;;
39982;SDS011;25670;44.782;10.356;2024-03-06T02:02:00;1.08;;;0.98;;
39982;SDS011;25670;44.782;10.356;2024-03-06T02:04:27;1.05;;;0.98;;
39982;SDS011;25670;44.782;10.356;2024-03-06T02:06:54;1.33;;;1.20;;
39982;SDS011;25670;44.782;10.356;2024-03-06T02:09:20;1.20;;;1.10;;
39982;SDS011;25670;44.782;10.356;2024-03-06T02:11:49;1.33;;;1.23;;
39982;SDS011;25670;44.782;10.356;2024-03-06T02:14:18;0.90;;;0.88;;
39982;SDS011;25670;44.782;10.356;2024-03-06T02:16:44;1.38;;;1.27;;
39982;SDS011;25670;44.782;10.356;2024-03-06T02:19:10;1.83;;;1.30;;
39982;SDS011;25670;44.782;10.356;2024-03-06T02:21:37;1.63;;;1.48;;
39982;SDS011;25670;44.782;10.356;2024-03-06T02:24:03;1.42;;;1.33;;
39982;SDS011;25670;44.782;10.356;2024-03-06T02:26:30;1.98;;;1.70;;
39982;SDS011;25670;44.782;10.356;2024-03-06T02:28:56;1.55;;;1.45;;
39982;SDS011;25670;44.782;10.356;2024-03-06T02:31:23;2.03;;;1.60;;
39982;SDS011;25670;44.782;10.356;2024-03-06T02:33:50;1.40;;;1.30;;
39982;SDS011;25670;44.782;10.356;2024-03-06T02:36:17;1.63;;;1.52;;
39982;SDS011;25670;44.782;10.356;2024-03-06T02:38:43;1.70;;;1.60;;
39982;SDS011;25670;44.782;10.356;2024-03-06T02:41:10;2.72;;;1.80;;
39982;SDS011;25670;44.782;10.356;2024-03-06T02:43:39;1.70;;;1.60;;
39982;SDS011;25670;44.782;10.356;2024-03-06T02:46:06;2.42;;;1.65;;
39982;SDS011;25670;44.782;10.356;2024-03-06T02:48:32;1.55;;;1.45;;
39982;SDS011;25670;44.782;10.356;2024-03-06T02:50:59;1.77;;;1.67;;
39982;SDS011;25670;44.782;10.356;2024-03-06T02:53:25;1.70;;;1.60;;
39982;SDS011;25670;44.782;10.356;2024-03-06T02:55:53;1.70;;;1.60;;
39982;SDS011;25670;44.782;10.356;2024-03-06T02:58:19;1.80;;;1.70;;
39982;SDS011;25670;44.782;10.356;2024-03-06T03:00:46;1.67;;;1.58;;
39982;SDS011;25670;44.782;10.356;2024-03-06T03:03:13;1.70;;;1.60;;
39982;SDS011;25670;44.782;10.356;2024-03-06T03:05:40;4.35;;;1.70;;
39982;SDS011;25670;44.782;10.356;2024-03-06T03:08:06;1.70;;;1.60;;
39982;SDS011;25670;44.782;10.356;2024-03-06T03:10:33;1.98;;;1.60;;
39982;SDS011;25670;44.782;10.356;2024-03-06T03:13:00;1.67;;;1.58;;
39982;SDS011;25670;44.782;10.356;2024-03-06T03:15:27;3.58;;;1.67;;
39982;SDS011;25670;44.782;10.356;2024-03-06T03:17:54;1.58;;;1.48;;
39982;SDS011;25670;44.782;10.356;2024-03-06T03:20:20;1.52;;;1.42;;
39982;SDS011;25670;44.782;10.356;2024-03-06T03:22:47;1.48;;;1.35;;
39982;SDS011;25670;44.782;10.356;2024-03-06T03:25:14;1.40;;;1.30;;
39982;SDS011;25670;44.782;10.356;2024-03-06T03:27:40;0.95;;;0.95;;
39982;SDS011;25670;44.782;10.356;2024-03-06T03:30:09;2.80;;;1.50;;
39982;SDS011;25670;44.782;10.356;2024-03-06T03:32:37;1.83;;;1.73;;
39982;SDS011;25670;44.782;10.356;2024-03-06T03:35:04;1.20;;;1.20;;
39982;SDS011;25670;44.782;10.356;2024-03-06T03:37:32;1.23;;;1.17;;
39982;SDS011;25670;44.782;10.356;2024-03-06T03:39:59;2.00;;;1.40;;
39982;SDS011;25670;44.782;10.356;2024-03-06T03:42:26;1.75;;;1.65;;
39982;SDS011;25670;44.782;10.356;2024-03-06T03:44:52;1.30;;;1.20;;
39982;SDS011;25670;44.782;10.356;2024-03-06T03:47:18;1.50;;;1.40;;
39982;SDS011;25670;44.782;10.356;2024-03-06T03:49:45;4.70;;;1.75;;
39982;SDS011;25670;44.782;10.356;2024-03-06T03:52:12;3.28;;;1.23;;
39982;SDS011;25670;44.782;10.356;2024-03-06T03:54:39;1.55;;;1.45;;
39982;SDS011;25670;44.782;10.356;2024-03-06T03:57:05;1.42;;;1.33;;
39982;SDS011;25670;44.782;10.356;2024-03-06T03:59:34;1.88;;;1.17;;
39982;SDS011;25670;44.782;10.356;2024-03-06T04:02:00;1.95;;;1.80;;
39982;SDS011;25670;44.782;10.356;2024-03-06T04:04:26;1.42;;;1.33;;
39982;SDS011;25670;44.782;10.356;2024-03-06T04:06:52;2.13;;;1.50;;
39982;SDS011;25670;44.782;10.356;2024-03-06T04:09:19;1.30;;;1.20;;
39982;SDS011;25670;44.782;10.356;2024-03-06T04:11:45;6.28;;;1.40;;
39982;SDS011;25670;44.782;10.356;2024-03-06T04:14:11;1.55;;;1.45;;
39982;SDS011;25670;44.782;10.356;2024-03-06T04:16:38;1.60;;;1.50;;
39982;SDS011;25670;44.782;10.356;2024-03-06T04:19:04;1.67;;;1.58;;
39982;SDS011;25670;44.782;10.356;2024-03-06T04:21:31;2.30;;;1.40;;
39982;SDS011;25670;44.782;10.356;2024-03-06T04:23:57;1.65;;;1.55;;
39982;SDS011;25670;44.782;10.356;2024-03-06T04:26:24;2.30;;;1.70;;
39982;SDS011;25670;44.782;10.356;2024-03-06T04:28:50;1.80;;;1.70;;
39982;SDS011;25670;44.782;10.356;2024-03-06T04:31:16;1.85;;;1.75;;
39982;SDS011;25670;44.782;10.356;2024-03-06T04:33:42;2.15;;;1.95;;
39982;SDS011;25670;44.782;10.356;2024-03-06T04:36:09;2.78;;;2.08;;
39982;SDS011;25670;44.782;10.356;2024-03-06T04:38:36;2.20;;;2.10;;
39982;SDS011;25670;44.782;10.356;2024-03-06T04:41:02;2.22;;;2.03;;
39982;SDS011;25670;44.782;10.356;2024-03-06T04:43:30;3.05;;;2.15;;
39982;SDS011;25670;44.782;10.356;2024-03-06T04:45:57;5.03;;;2.17;;
39982;SDS011;25670;44.782;10.356;2024-03-06T04:48:23;2.55;;;2.45;;
39982;SDS011;25670;44.782;10.356;2024-03-06T04:50:49;2.97;;;2.60;;
39982;SDS011;25670;44.782;10.356;2024-03-06T04:53:15;2.83;;;2.58;;
39982;SDS011;25670;44.782;10.356;2024-03-06T04:55:42;2.97;;;2.78;;
39982;SDS011;25670;44.782;10.356;2024-03-06T04:58:08;2.38;;;2.28;;
39982;SDS011;25670;44.782;10.356;2024-03-06T05:00:35;3.30;;;3.10;;
39982;SDS011;25670;44.782;10.356;2024-03-06T05:03:01;2.35;;;2.25;;
39982;SDS011;25670;44.782;10.356;2024-03-06T05:05:28;3.10;;;2.80;;
39982;SDS011;25670;44.782;10.356;2024-03-06T05:07:55;2.55;;;2.38;;
39982;SDS011;25670;44.782;10.356;2024-03-06T05:10:21;2.78;;;2.58;;
39982;SDS011;25670;44.782;10.356;2024-03-06T05:12:47;2.70;;;2.53;;
39982;SDS011;25670;44.782;10.356;2024-03-06T05:15:14;3.00;;;2.80;;
39982;SDS011;25670;44.782;10.356;2024-03-06T05:17:40;2.97;;;2.78;;
39982;SDS011;25670;44.782;10.356;2024-03-06T05:20:06;2.60;;;2.40;;
39982;SDS011;25670;44.782;10.356;2024-03-06T05:22:33;2.38;;;2.28;;
39982;SDS011;25670;44.782;10.356;2024-03-06T05:25:00;2.25;;;2.15;;
39982;SDS011;25670;44.782;10.356;2024-03-06T05:27:26;3.05;;;2.85;;
39982;SDS011;25670;44.782;10.356;2024-03-06T05:29:52;3.65;;;3.13;;
39982;SDS011;25670;44.782;10.356;2024-03-06T05:32:18;3.42;;;3.22;;
39982;SDS011;25670;44.782;10.356;2024-03-06T05:34:45;3.50;;;3.20;;
39982;SDS011;25670;44.782;10.356;2024-03-06T05:37:11;5.88;;;4.10;;
39982;SDS011;25670;44.782;10.356;2024-03-06T05:39:38;3.92;;;3.72;;
39982;SDS011;25670;44.782;10.356;2024-03-06T05:42:04;5.75;;;4.03;;
39982;SDS011;25670;44.782;10.356;2024-03-06T05:44:31;4.60;;;4.30;;
39982;SDS011;25670;44.782;10.356;2024-03-06T05:46:58;5.72;;;3.67;;
39982;SDS011;25670;44.782;10.356;2024-03-06T05:49:26;4.22;;;4.03;;
39982;SDS011;25670;44.782;10.356;2024-03-06T05:51:53;3.50;;;3.30;;
39982;SDS011;25670;44.782;10.356;2024-03-06T05:54:20;3.72;;;3.40;;
39982;SDS011;25670;44.782;10.356;2024-03-06T05:56:48;4.07;;;3.78;;
39982;SDS011;25670;44.782;10.356;2024-03-06T05:59:18;9.10;;;4.30;;
39982;SDS011;25670;44.782;10.356;2024-03-06T06:01:45;4.20;;;3.90;;
39982;SDS011;25670;44.782;10.356;2024-03-06T06:04:11;5.65;;;5.20;;
39982;SDS011;25670;44.782;10.356;2024-03-06T06:06:39;5.43;;;5.03;;
39982;SDS011;25670;44.782;10.356;2024-03-06T06:09:06;7.32;;;6.40;;
39982;SDS011;25670;44.782;10.356;2024-03-06T06:11:32;7.55;;;6.45;;
39982;SDS011;25670;44.782;10.356;2024-03-06T06:13:59;7.28;;;6.65;;
39982;SDS011;25670;44.782;10.356;2024-03-06T06:16:26;6.43;;;5.82;;
39982;SDS011;25670;44.782;10.356;2024-03-06T06:18:52;6.10;;;5.50;;
39982;SDS011;25670;44.782;10.356;2024-03-06T06:21:19;5.53;;;5.03;;
39982;SDS011;25670;44.782;10.356;2024-03-06T06:23:45;8.68;;;4.60;;
39982;SDS011;25670;44.782;10.356;2024-03-06T06:26:11;4.25;;;3.95;;
39982;SDS011;25670;44.782;10.356;2024-03-06T06:28:40;6.18;;;3.95;;
39982;SDS011;25670;44.782;10.356;2024-03-06T06:31:08;5.75;;;4.57;;
39982;SDS011;25670;44.782;10.356;2024-03-06T06:33:34;4.88;;;4.00;;
39982;SDS011;25670;44.782;10.356;2024-03-06T06:36:00;5.22;;;4.75;;
39982;SDS011;25670;44.782;10.356;2024-03-06T06:38:26;5.28;;;4.85;;
39982;SDS011;25670;44.782;10.356;2024-03-06T06:40:53;5.78;;;3.88;;
39982;SDS011;25670;44.782;10.356;2024-03-06T06:43:19;4.47;;;4.18;;
39982;SDS011;25670;44.782;10.356;2024-03-06T06:45:46;3.97;;;3.70;;
39982;SDS011;25670;44.782;10.356;2024-03-06T06:48:12;5.30;;;3.80;;
39982;SDS011;25670;44.782;10.356;2024-03-06T06:50:38;4.15;;;3.80;;
39982;SDS011;25670;44.782;10.356;2024-03-06T06:53:05;3.88;;;3.58;;
39982;SDS011;25670;44.782;10.356;2024-03-06T06:55:31;4.18;;;3.40;;
39982;SDS011;25670;44.782;10.356;2024-03-06T06:57:57;3.97;;;3.50;;
39982;SDS011;25670;44.782;10.356;2024-03-06T07:00:24;7.20;;;3.20;;
39982;SDS011;25670;44.782;10.356;2024-03-06T07:02:51;3.58;;;3.28;;
39982;SDS011;25670;44.782;10.356;2024-03-06T07:05:17;3.97;;;3.67;;
39982;SDS011;25670;44.782;10.356;2024-03-06T07:07:44;3.22;;;2.97;;
39982;SDS011;25670;44.782;10.356;2024-03-06T07:10:10;3.33;;;3.03;;
39982;SDS011;25670;44.782;10.356;2024-03-06T07:12:37;2.72;;;2.53;;
39982;SDS011;25670;44.782;10.356;2024-03-06T07:15:03;5.53;;;2.70;;
39982;SDS011;25670;44.782;10.356;2024-03-06T07:17:30;7.10;;;2.22;;
39982;SDS011;25670;44.782;10.356;2024-03-06T07:19:56;3.30;;;3.10;;
39982;SDS011;25670;44.782;10.356;2024-03-06T07:22:23;3.40;;;3.17;;
39982;SDS011;25670;44.782;10.356;2024-03-06T07:24:50;11.55;;;2.80;;
39982;SDS011;25670;44.782;10.356;2024-03-06T07:27:16;2.85;;;2.65;;
39982;SDS011;25670;44.782;10.356;2024-03-06T07:29:44;2.58;;;2.38;;
39982;SDS011;25670;44.782;10.356;2024-03-06T07:32:11;3.95;;;3.03;;
39982;SDS011;25670;44.782;10.356;2024-03-06T07:34:37;3.45;;;2.35;;
39982;SDS011;25670;44.782;10.356;2024-03-06T07:37:04;2.33;;;2.20;;
39982;SDS011;25670;44.782;10.356;2024-03-06T07:39:36;5.03;;;2.53;;
39982;SDS011;25670;44.782;10.356;2024-03-06T07:42:02;4.80;;;2.33;;
39982;SDS011;25670;44.782;10.356;2024-03-06T07:44:29;1.70;;;1.60;;
39982;SDS011;25670;44.782;10.356;2024-03-06T07:46:55;2.05;;;1.90;;
39982;SDS011;25670;44.782;10.356;2024-03-06T07:49:22;2.47;;;1.58;;
39982;SDS011;25670;44.782;10.356;2024-03-06T07:51:48;1.88;;;1.75;;
39982;SDS011;25670;44.782;10.356;2024-03-06T07:54:15;5.28;;;1.98;;
39982;SDS011;25670;44.782;10.356;2024-03-06T07:56:42;2.10;;;1.88;;
39982;SDS011;25670;44.782;10.356;2024-03-06T07:59:08;5.40;;;1.95;;
39982;SDS011;25670;44.782;10.356;2024-03-06T08:01:38;2.75;;;1.63;;
39982;SDS011;25670;44.782;10.356;2024-03-06T08:04:04;4.88;;;1.95;;
39982;SDS011;25670;44.782;10.356;2024-03-06T08:06:31;3.13;;;1.40;;
39982;SDS011;25670;44.782;10.356;2024-03-06T08:08:59;1.40;;;1.30;;
39982;SDS011;25670;44.782;10.356;2024-03-06T08:11:27;1.15;;;1.10;;
39982;SDS011;25670;44.782;10.356;2024-03-06T08:13:58;1.30;;;1.20;;
39982;SDS011;25670;44.782;10.356;2024-03-06T08:16:24;2.10;;;1.30;;
39982;SDS011;25670;44.782;10.356;2024-03-06T08:18:51;2.28;;;1.50;;
39982;SDS011;25670;44.782;10.356;2024-03-06T08:21:18;1.63;;;1.52;;
39982;SDS011;25670;44.782;10.356;2024-03-06T08:23:45;1.92;;;1.30;;
39982;SDS011;25670;44.782;10.356;2024-03-06T08:26:13;1.10;;;1.10;;
39982;SDS011;25670;44.782;10.356;2024-03-06T08:28:40;1.15;;;1.05;;
39982;SDS011;25670;44.782;10.356;2024-03-06T08:31:07;0.88;;;0.88;;
39982;SDS011;25670;44.782;10.356;2024-03-06T08:33:34;1.30;;;0.90;;
39982;SDS011;25670;44.782;10.356;2024-03-06T08:36:00;0.90;;;0.90;;
39982;SDS011;25670;44.782;10.356;2024-03-06T08:38:28;5.20;;;0.77;;
39982;SDS011;25670;44.782;10.356;2024-03-06T08:40:54;1.63;;;0.98;;
39982;SDS011;25670;44.782;10.356;2024-03-06T08:43:21;1.02;;;0.93;;
39982;SDS011;25670;44.782;10.356;2024-03-06T08:45:47;1.67;;;0.80;;
39982;SDS011;25670;44.782;10.356;2024-03-06T08:48:13;1.43;;;0.60;;
39982;SDS011;25670;44.782;10.356;2024-03-06T08:50:40;2.25;;;0.73;;
39982;SDS011;25670;44.782;10.356;2024-03-06T08:53:06;1.13;;;0.73;;
39982;SDS011;25670;44.782;10.356;2024-03-06T08:55:32;0.77;;;0.60;;
39982;SDS011;25670;44.782;10.356;2024-03-06T08:57:59;0.95;;;0.95;;
39982;SDS011;25670;44.782;10.356;2024-03-06T09:00:40;1.25;;;1.00;;
39982;SDS011;25670;44.782;10.356;2024-03-06T09:03:06;0.52;;;0.52;;
39982;SDS011;25670;44.782;10.356;2024-03-06T09:05:33;0.75;;;0.75;;
39982;SDS011;25670;44.782;10.356;2024-03-06T09:07:59;3.00;;;0.80;;
39982;SDS011;25670;44.782;10.356;2024-03-06T09:10:26;0.88;;;0.80;;
39982;SDS011;25670;44.782;10.356;2024-03-06T09:12:52;1.20;;;1.08;;
39982;SDS011;25670;44.782;10.356;2024-03-06T09:15:18;0.85;;;0.68;;
39982;SDS011;25670;44.782;10.356;2024-03-06T09:17:45;1.48;;;0.93;;
39982;SDS011;25670;44.782;10.356;2024-03-06T09:20:13;2.88;;;1.02;;
39982;SDS011;25670;44.782;10.356;2024-03-06T09:22:39;5.57;;;1.25;;
39982;SDS011;25670;44.782;10.356;2024-03-06T09:25:06;1.48;;;1.35;;
39982;SDS011;25670;44.782;10.356;2024-03-06T09:27:33;1.70;;;1.60;;
39982;SDS011;25670;44.782;10.356;2024-03-06T09:30:00;1.58;;;1.48;;
39982;SDS011;25670;44.782;10.356;2024-03-06T09:32:26;1.70;;;1.60;;
39982;SDS011;25670;44.782;10.356;2024-03-06T09:34:53;3.88;;;1.65;;
39982;SDS011;25670;44.782;10.356;2024-03-06T09:37:19;1.33;;;1.23;;
39982;SDS011;25670;44.782;10.356;2024-03-06T09:39:46;2.97;;;1.15;;
39982;SDS011;25670;44.782;10.356;2024-03-06T09:42:15;1.83;;;1.52;;
39982;SDS011;25670;44.782;10.356;2024-03-06T09:44:42;5.40;;;1.95;;
39982;SDS011;25670;44.782;10.356;2024-03-06T09:47:11;1.80;;;1.70;;
39982;SDS011;25670;44.782;10.356;2024-03-06T09:49:42;2.83;;;1.55;;
39982;SDS011;25670;44.782;10.356;2024-03-06T09:52:09;2.58;;;2.10;;
39982;SDS011;25670;44.782;10.356;2024-03-06T09:54:36;3.35;;;2.97;;
39982;SDS011;25670;44.782;10.356;2024-03-06T09:57:05;2.90;;;2.65;;
39982;SDS011;25670;44.782;10.356;2024-03-06T09:59:31;2.88;;;2.35;;
39982;SDS011;25670;44.782;10.356;2024-03-06T10:01:58;3.58;;;3.33;;
39982;SDS011;25670;44.782;10.356;2024-03-06T10:04:32;4.60;;;2.75;;
39982;SDS011;25670;44.782;10.356;2024-03-06T10:07:03;4.13;;;2.85;;
39982;SDS011;25670;44.782;10.356;2024-03-06T10:09:30;3.25;;;3.00;;
39982;SDS011;25670;44.782;10.356;2024-03-06T10:11:58;2.10;;;2.00;;
39982;SDS011;25670;44.782;10.356;2024-03-06T10:14:25;2.47;;;2.38;;
39982;SDS011;25670;44.782;10.356;2024-03-06T10:16:52;3.10;;;2.80;;
39982;SDS011;25670;44.782;10.356;2024-03-06T10:19:22;3.65;;;3.35;;
39982;SDS011;25670;44.782;10.356;2024-03-06T10:21:50;3.70;;;3.40;;
39982;SDS011;25670;44.782;10.356;2024-03-06T10:26:49;3.70;;;3.50;;
39982;SDS011;25670;44.782;10.356;2024-03-06T10:29:17;3.35;;;2.90;;
39982;SDS011;25670;44.782;10.356;2024-03-06T10:31:54;3.05;;;2.35;;
39982;SDS011;25670;44.782;10.356;2024-03-06T10:34:23;3.38;;;2.83;;
39982;SDS011;25670;44.782;10.356;2024-03-06T10:36:55;2.00;;;1.90;;
39982;SDS011;25670;44.782;10.356;2024-03-06T10:39:22;1.88;;;1.77;;
39982;SDS011;25670;44.782;10.356;2024-03-06T10:41:53;1.92;;;1.70;;
39982;SDS011;25670;44.782;10.356;2024-03-06T10:44:26;1.50;;;1.40;;
39982;SDS011;25670;44.782;10.356;2024-03-06T10:47:03;1.95;;;1.15;;
39982;SDS011;25670;44.782;10.356;2024-03-06T10:49:31;2.45;;;1.10;;
39982;SDS011;25670;44.782;10.356;2024-03-06T10:52:00;2.72;;;1.92;;
39982;SDS011;25670;44.782;10.356;2024-03-06T10:54:29;1.90;;;1.50;;
39982;SDS011;25670;44.782;10.356;2024-03-06T10:57:02;1.65;;;1.55;;
39982;SDS011;25670;44.782;10.356;2024-03-06T10:59:29;1.33;;;1.10;;
39982;SDS011;25670;44.782;10.356;2024-03-06T11:01:59;1.20;;;1.10;;
39982;SDS011;25670;44.782;10.356;2024-03-06T11:04:27;2.15;;;1.00;;
39982;SDS011;25670;44.782;10.356;2024-03-06T11:07:03;1.58;;;1.48;;
39982;SDS011;25670;44.782;10.356;2024-03-06T11:09:33;1.55;;;1.45;;
39982;SDS011;25670;44.782;10.356;2024-03-06T11:12:06;2.50;;;1.60;;
39982;SDS011;25670;44.782;10.356;2024-03-06T11:14:35;3.58;;;1.58;;
39982;SDS011;25670;44.782;10.356;2024-03-06T11:17:05;1.33;;;1.30;;
39982;SDS011;25670;44.782;10.356;2024-03-06T11:20:07;4.13;;;1.60;;
39982;SDS011;25670;44.782;10.356;2024-03-06T11:28:18;1.30;;;1.20;;
39982;SDS011;25670;44.782;10.356;2024-03-06T11:30:55;2.05;;;1.40;;
39982;SDS011;25670;44.782;10.356;2024-03-06T11:33:21;1.58;;;1.13;;
39982;SDS011;25670;44.782;10.356;2024-03-06T11:39:02;2.10;;;1.45;;
39982;SDS011;25670;44.782;10.356;2024-03-06T11:41:30;1.90;;;1.70;;
39982;SDS011;25670;44.782;10.356;2024-03-06T11:44:00;1.50;;;1.40;;
39982;SDS011;25670;44.782;10.356;2024-03-06T11:46:43;1.50;;;1.40;;
39982;SDS011;25670;44.782;10.356;2024-03-06T11:49:43;2.28;;;1.48;;
39982;SDS011;25670;44.782;10.356;2024-03-06T11:52:04;2.05;;;1.52;;
39982;SDS011;25670;44.782;10.356;2024-03-06T11:54:34;2.13;;;1.67;;
39982;SDS011;25670;44.782;10.356;2024-03-06T11:57:01;1.73;;;1.63;;
39982;SDS011;25670;44.782;10.356;2024-03-06T11:59:32;3.65;;;2.00;;
39982;SDS011;25670;44.782;10.356;2024-03-06T12:02:00;1.60;;;1.50;;
39982;SDS011;25670;44.782;10.356;2024-03-06T12:04:30;2.72;;;1.60;;
39982;SDS011;25670;44.782;10.356;2024-03-06T12:06:59;1.88;;;1.77;;
39982;SDS011;25670;44.782;10.356;2024-03-06T12:11:57;1.63;;;1.52;;
39982;SDS011;25670;44.782;10.356;2024-03-06T12:14:24;2.28;;;2.17;;
39982;SDS011;25670;44.782;10.356;2024-03-06T12:16:57;1.73;;;1.63;;
39982;SDS011;25670;44.782;10.356;2024-03-06T12:19:27;9.27;;;2.08;;
39982;SDS011;25670;44.782;10.356;2024-03-06T12:22:02;2.30;;;1.83;;
39982;SDS011;25670;44.782;10.356;2024-03-06T12:24:32;2.20;;;2.00;;
39982;SDS011;25670;44.782;10.356;2024-03-06T12:26:59;1.85;;;1.75;;
39982;SDS011;25670;44.782;10.356;2024-03-06T12:29:28;1.83;;;1.73;;
39982;SDS011;25670;44.782;10.356;2024-03-06T12:31:58;3.13;;;1.80;;
39982;SDS011;25670;44.782;10.356;2024-03-06T12:34:25;2.03;;;1.92;;
39982;SDS011;25670;44.782;10.356;2024-03-06T12:36:52;2.25;;;2.13;;
39982;SDS011;25670;44.782;10.356;2024-03-06T12:39:19;3.00;;;2.28;;
39982;SDS011;25670;44.782;10.356;2024-03-06T12:41:49;1.92;;;1.38;;
39982;SDS011;25670;44.782;10.356;2024-03-06T12:44:16;1.48;;;1.38;;
39982;SDS011;25670;44.782;10.356;2024-03-06T12:46:42;1.65;;;1.55;;
39982;SDS011;25670;44.782;10.356;2024-03-06T12:49:09;1.48;;;1.38;;
39982;SDS011;25670;44.782;10.356;2024-03-06T12:51:35;3.20;;;1.70;;
39982;SDS011;25670;44.782;10.356;2024-03-06T12:54:02;2.15;;;1.95;;
39982;SDS011;25670;44.782;10.356;2024-03-06T12:56:29;2.15;;;1.65;;
39982;SDS011;25670;44.782;10.356;2024-03-06T12:58:56;1.60;;;1.50;;
39982;SDS011;25670;44.782;10.356;2024-03-06T13:01:22;1.55;;;1.45;;
39982;SDS011;25670;44.782;10.356;2024-03-06T13:03:48;1.40;;;1.30;;
39982;SDS011;25670;44.782;10.356;2024-03-06T13:06:15;5.50;;;1.02;;
39982;SDS011;25670;44.782;10.356;2024-03-06T13:08:41;1.58;;;1.00;;
39982;SDS011;25670;44.782;10.356;2024-03-06T13:11:08;1.48;;;0.90;;
39982;SDS011;25670;44.782;10.356;2024-03-06T13:13:35;2.05;;;0.90;;
39982;SDS011;25670;44.782;10.356;2024-03-06T13:16:02;1.52;;;0.88;;
39982;SDS011;25670;44.782;10.356;2024-03-06T13:18:28;0.63;;;0.60;;
39982;SDS011;25670;44.782;10.356;2024-03-06T13:20:54;0.82;;;0.50;;
39982;SDS011;25670;44.782;10.356;2024-03-06T13:23:24;1.75;;;0.47;;
39982;SDS011;25670;44.782;10.356;2024-03-06T13:25:50;3.95;;;0.40;;
39982;SDS011;25670;44.782;10.356;2024-03-06T13:28:16;0.57;;;0.57;;
39982;SDS011;25670;44.782;10.356;2024-03-06T13:30:43;1.80;;;0.55;;
39982;SDS011;25670;44.782;10.356;2024-03-06T13:33:09;2.20;;;0.47;;
39982;SDS011;25670;44.782;10.356;2024-03-06T13:35:36;0.50;;;0.40;;
39982;SDS011;25670;44.782;10.356;2024-03-06T13:38:03;0.45;;;0.30;;
39982;SDS011;25670;44.782;10.356;2024-03-06T13:40:29;0.35;;;0.30;;
39982;SDS011;25670;44.782;10.356;2024-03-06T13:42:56;0.68;;;0.40;;
39982;SDS011;25670;44.782;10.356;2024-03-06T13:45:22;0.45;;;0.30;;
39982;SDS011;25670;44.782;10.356;2024-03-06T13:47:49;3.30;;;0.40;;
39982;SDS011;25670;44.782;10.356;2024-03-06T13:50:15;0.85;;;0.32;;
39982;SDS011;25670;44.782;10.356;2024-03-06T13:52:42;0.35;;;0.35;;
39982;SDS011;25670;44.782;10.356;2024-03-06T13:55:09;0.40;;;0.40;;
39982;SDS011;25670;44.782;10.356;2024-03-06T13:57:36;0.47;;;0.45;;
39982;SDS011;25670;44.782;10.356;2024-03-06T14:00:04;0.17;;;0.17;;
39982;SDS011;25670;44.782;10.356;2024-03-06T14:02:39;3.20;;;0.40;;
39982;SDS011;25670;44.782;10.356;2024-03-06T14:05:06;0.35;;;0.30;;
39982;SDS011;25670;44.782;10.356;2024-03-06T14:07:33;0.32;;;0.22;;
39982;SDS011;25670;44.782;10.356;2024-03-06T14:10:00;0.90;;;0.30;;
39982;SDS011;25670;44.782;10.356;2024-03-06T14:12:27;3.30;;;0.40;;
39982;SDS011;25670;44.782;10.356;2024-03-06T14:14:53;1.45;;;0.73;;
39982;SDS011;25670;44.782;10.356;2024-03-06T14:17:21;0.52;;;0.30;;
39982;SDS011;25670;44.782;10.356;2024-03-06T14:19:47;0.20;;;0.20;;
39982;SDS011;25670;44.782;10.356;2024-03-06T14:22:14;2.25;;;0.17;;
39982;SDS011;25670;44.782;10.356;2024-03-06T14:24:42;0.50;;;0.50;;
39982;SDS011;25670;44.782;10.356;2024-03-06T14:27:09;0.40;;;0.40;;
39982;SDS011;25670;44.782;10.356;2024-03-06T14:29:36;0.73;;;0.43;;
39982;SDS011;25670;44.782;10.356;2024-03-06T14:32:02;0.50;;;0.50;;
39982;SDS011;25670;44.782;10.356;2024-03-06T14:34:29;1.10;;;0.47;;
39982;SDS011;25670;44.782;10.356;2024-03-06T14:36:55;0.45;;;0.30;;
39982;SDS011;25670;44.782;10.356;2024-03-06T14:39:22;0.85;;;0.40;;
39982;SDS011;25670;44.782;10.356;2024-03-06T14:41:49;1.38;;;0.30;;
39982;SDS011;25670;44.782;10.356;2024-03-06T14:44:16;0.50;;;0.50;;
39982;SDS011;25670;44.782;10.356;2024-03-06T14:46:43;0.95;;;0.38;;
39982;SDS011;25670;44.782;10.356;2024-03-06T14:49:09;0.32;;;0.30;;